createdAt,value
2022-08-07T00:01:43.746Z,19.71
2022-08-07T00:04:09.680Z,19.66
2022-08-07T00:06:41.029Z,19.66
2022-08-07T00:09:29.182Z,19.67
2022-08-07T00:12:03.500Z,19.59
2022-08-07T00:14:32.054Z,19.62
2022-08-07T00:17:02.528Z,19.66
2022-08-07T00:19:34.077Z,19.57
2022-08-07T00:22:24.441Z,19.56
2022-08-07T00:25:16.393Z,19.60
2022-08-07T00:27:52.154Z,19.55
2022-08-07T00:30:27.400Z,19.53
2022-08-07T00:33:00.898Z,19.52
2022-08-07T00:35:30.841Z,19.46
2022-08-07T00:38:04.581Z,19.40
2022-08-07T00:40:40.110Z,19.40
2022-08-07T00:44:02.061Z,19.40
2022-08-07T00:46:01.721Z,19.43
2022-08-07T00:48:31.782Z,19.33
2022-08-07T00:51:02.864Z,19.28
2022-08-07T00:53:39.281Z,19.27
2022-08-07T00:56:19.200Z,19.34
2022-08-07T00:58:49.698Z,19.32
2022-08-07T01:01:20.559Z,19.26
2022-08-07T01:03:56.981Z,19.26
2022-08-07T01:06:29.595Z,19.21
2022-08-07T01:09:00.977Z,19.26
2022-08-07T01:12:09.537Z,19.22
2022-08-07T01:14:28.475Z,19.23
2022-08-07T01:16:57.230Z,19.22
2022-08-07T01:19:32.441Z,19.16
2022-08-07T01:22:03.152Z,19.18
2022-08-07T01:24:32.567Z,19.14
2022-08-07T01:27:01.453Z,19.12
2022-08-07T01:29:33.925Z,19.14
2022-08-07T01:32:05.471Z,19.17
2022-08-07T01:34:47.410Z,19.11
2022-08-07T01:37:19.003Z,19.19
2022-08-07T01:39:49.196Z,19.15
2022-08-07T01:42:38.493Z,19.12
2022-08-07T01:45:09.742Z,19.10
2022-08-07T01:48:19.666Z,19.01
2022-08-07T01:50:36.471Z,19.11
2022-08-07T01:53:08.949Z,19.05
2022-08-07T01:55:44.296Z,19.08
2022-08-07T01:58:27.306Z,18.95
2022-08-07T02:01:09.542Z,19.03
2022-08-07T02:03:52.238Z,19.02
2022-08-07T02:06:31.162Z,19.02
2022-08-07T02:09:04.642Z,19.01
2022-08-07T02:12:02.941Z,19.00
2022-08-07T02:14:40.595Z,19.01
2022-08-07T02:17:27.701Z,18.98
2022-08-07T02:20:05.587Z,19.06
2022-08-07T02:22:41.378Z,19.05
2022-08-07T02:25:17.628Z,19.00
2022-08-07T02:27:52.126Z,19.08
2022-08-07T02:30:21.515Z,19.07
2022-08-07T02:33:00.786Z,19.10
2022-08-07T02:36:29.774Z,19.09
2022-08-07T02:38:32.342Z,19.09
2022-08-07T02:41:01.415Z,19.13
2022-08-07T02:43:35.496Z,19.10
2022-08-07T02:46:09.294Z,19.20
2022-08-07T02:48:39.214Z,19.19
2022-08-07T02:51:41.872Z,19.25
2022-08-07T02:54:13.190Z,19.21
2022-08-07T02:56:44.153Z,19.26
2022-08-07T02:59:23.984Z,19.22
2022-08-07T03:01:56.516Z,19.17
2022-08-07T03:04:30.874Z,19.11
2022-08-07T03:07:03.232Z,19.11
2022-08-07T03:09:43.608Z,19.17
2022-08-07T03:12:22.547Z,19.11
2022-08-07T03:15:02.207Z,19.02
2022-08-07T03:17:53.450Z,19.00
2022-08-07T03:20:23.727Z,18.90
2022-08-07T03:22:53.966Z,18.88
2022-08-07T03:25:25.495Z,18.78
2022-08-07T03:28:08.881Z,18.78
2022-08-07T03:30:47.015Z,18.86
2022-08-07T03:33:17.082Z,18.81
2022-08-07T03:35:50.159Z,18.73
2022-08-07T03:38:21.231Z,18.72
2022-08-07T03:40:57.358Z,18.61
2022-08-07T03:43:32.956Z,18.71
2022-08-07T03:46:03.207Z,18.71
2022-08-07T03:48:34.157Z,18.70
2022-08-07T03:51:15.319Z,18.61
2022-08-07T03:54:33.063Z,18.79
2022-08-07T03:56:40.420Z,18.78
2022-08-07T03:59:28.843Z,18.84
2022-08-07T04:01:59.062Z,18.90
2022-08-07T04:04:27.579Z,18.95
2022-08-07T04:07:00.671Z,19.06
2022-08-07T04:09:44.925Z,19.10
2022-08-07T04:12:23.771Z,19.13
2022-08-07T04:15:00.125Z,19.16
2022-08-07T04:18:58.353Z,19.04
2022-08-07T04:20:19.598Z,19.15
2022-08-07T04:22:53.594Z,19.21
2022-08-07T04:25:31.333Z,19.21
2022-08-07T04:28:08.618Z,19.23
2022-08-07T04:30:55.517Z,19.17
2022-08-07T04:33:27.384Z,19.38
2022-08-07T04:35:56.826Z,19.41
2022-08-07T04:38:27.227Z,19.54
2022-08-07T04:40:56.569Z,19.57
2022-08-07T04:44:11.301Z,19.76
2022-08-07T04:46:59.238Z,19.84
2022-08-07T04:49:42.330Z,19.70
2022-08-07T04:53:07.450Z,19.77
2022-08-07T04:58:14.295Z,19.86
2022-08-07T05:02:06.721Z,19.75
2022-08-07T05:04:50.136Z,19.83
2022-08-07T05:07:30.636Z,19.76
2022-08-07T05:10:38.549Z,19.87
2022-08-07T05:14:51.994Z,19.99
2022-08-07T05:16:17.494Z,19.97
2022-08-07T05:18:56.258Z,19.77
2022-08-07T05:21:59.379Z,19.80
2022-08-07T05:24:18.372Z,19.65
2022-08-07T05:26:58.186Z,19.76
2022-08-07T05:29:39.091Z,19.63
2022-08-07T05:32:21.114Z,19.73
2022-08-07T05:34:50.366Z,19.77
2022-08-07T05:37:25.418Z,19.84
2022-08-07T05:40:05.400Z,19.68
2022-08-07T05:42:37.041Z,19.79
2022-08-07T05:45:26.300Z,19.77
2022-08-07T05:48:02.490Z,19.85
2022-08-07T05:50:34.360Z,20.07
2022-08-07T05:53:04.062Z,20.13
2022-08-07T05:56:02.354Z,20.20
2022-08-07T05:58:36.385Z,20.31
2022-08-07T06:01:11.605Z,20.44
2022-08-07T06:03:53.559Z,20.62
2022-08-07T06:06:29.838Z,20.98
2022-08-07T06:09:04.342Z,21.61
2022-08-07T06:11:34.761Z,22.22
2022-08-07T06:14:12.182Z,22.38
2022-08-07T06:16:55.876Z,22.51
2022-08-07T06:19:57.836Z,22.58
2022-08-07T06:22:23.839Z,22.55
2022-08-07T06:25:01.488Z,22.47
2022-08-07T06:28:00.656Z,22.61
2022-08-07T06:30:35.191Z,22.94
2022-08-07T06:33:09.911Z,22.17
2022-08-07T06:35:48.077Z,22.17
2022-08-07T06:38:35.051Z,22.47
2022-08-07T06:41:09.794Z,22.26
2022-08-07T06:43:46.485Z,22.25
2022-08-07T06:46:31.458Z,22.37
2022-08-07T06:49:04.592Z,22.29
2022-08-07T06:51:49.585Z,22.35
2022-08-07T06:55:31.348Z,22.84
2022-08-07T06:57:09.611Z,22.77
2022-08-07T07:00:11.708Z,22.83
2022-08-07T07:02:53.679Z,23.02
2022-08-07T07:06:03.615Z,23.30
2022-08-07T07:08:18.873Z,23.25
2022-08-07T07:10:57.380Z,23.79
2022-08-07T07:13:56.374Z,24.13
2022-08-07T07:16:27.453Z,23.77
2022-08-07T07:19:11.560Z,23.47
2022-08-07T07:22:04.800Z,22.87
2022-08-07T07:24:58.390Z,23.10
2022-08-07T07:27:35.536Z,23.12
2022-08-07T07:30:38.123Z,22.98
2022-08-07T07:33:11.701Z,23.09
2022-08-07T07:36:04.093Z,22.90
2022-08-07T07:38:34.924Z,22.92
2022-08-07T07:41:08.766Z,22.77
2022-08-07T07:44:13.693Z,22.64
2022-08-07T07:46:54.180Z,22.82
2022-08-07T07:50:34.754Z,22.68
2022-08-07T07:52:17.549Z,22.91
2022-08-07T07:54:51.244Z,22.67
2022-08-07T07:57:50.489Z,22.83
2022-08-07T08:00:15.058Z,22.93
2022-08-07T08:03:06.003Z,22.96
2022-08-07T08:05:54.089Z,22.83
2022-08-07T08:08:35.290Z,23.08
2022-08-07T08:11:07.996Z,23.56
2022-08-07T08:13:52.782Z,24.13
2022-08-07T08:16:29.824Z,26.90
2022-08-07T08:19:17.341Z,26.50
2022-08-07T08:22:10.738Z,26.59
2022-08-07T08:25:19.167Z,25.30
2022-08-07T08:28:01.742Z,24.27
2022-08-07T08:30:37.413Z,24.72
2022-08-07T08:33:15.070Z,25.49
2022-08-07T08:35:50.683Z,25.53
2022-08-07T08:38:25.806Z,25.33
2022-08-07T08:40:59.056Z,26.14
2022-08-07T08:43:42.302Z,25.32
2022-08-07T08:46:49.212Z,25.19
2022-08-07T08:49:32.664Z,25.37
2022-08-07T08:52:24.667Z,25.46
2022-08-07T08:55:07.803Z,26.28
2022-08-07T08:57:49.511Z,26.11
2022-08-07T09:00:18.322Z,27.42
2022-08-07T09:02:57.818Z,27.49
2022-08-07T09:05:43.421Z,27.31
2022-08-07T09:08:28.266Z,26.09
2022-08-07T09:11:24.794Z,26.04
2022-08-07T09:14:18.105Z,26.03
2022-08-07T09:17:24.097Z,27.02
2022-08-07T09:20:34.616Z,27.11
2022-08-07T09:24:31.401Z,26.92
2022-08-07T09:26:20.928Z,26.43
2022-08-07T09:30:04.150Z,26.28
2022-08-07T09:32:21.841Z,26.20
2022-08-07T09:36:05.147Z,26.01
2022-08-07T09:38:58.970Z,26.43
2022-08-07T09:42:07.822Z,27.14
2022-08-07T09:47:23.589Z,27.01
2022-08-07T09:48:12.233Z,26.97
2022-08-07T09:50:57.378Z,27.03
2022-08-07T09:53:41.125Z,27.39
2022-08-07T09:56:34.098Z,27.20
2022-08-07T09:59:46.125Z,27.48
2022-08-07T10:02:39.654Z,27.74
2022-08-07T10:05:29.626Z,27.95
2022-08-07T10:08:49.571Z,28.47
2022-08-07T10:12:01.331Z,28.18
2022-08-07T10:15:06.327Z,28.77
2022-08-07T10:18:00.857Z,29.05
2022-08-07T10:20:39.278Z,28.68
2022-08-07T10:24:05.121Z,29.09
2022-08-07T10:26:57.503Z,28.82
2022-08-07T10:29:31.753Z,28.87
2022-08-07T10:32:36.863Z,28.95
2022-08-07T10:35:56.420Z,29.08
2022-08-07T10:38:48.016Z,28.87
2022-08-07T10:41:52.083Z,28.81
2022-08-07T10:44:38.363Z,28.75
2022-08-07T10:47:31.120Z,28.89
2022-08-07T10:50:25.930Z,29.11
2022-08-07T10:53:12.962Z,28.48
2022-08-07T10:55:50.566Z,28.31
2022-08-07T10:58:47.686Z,28.29
2022-08-07T11:01:35.206Z,28.25
2022-08-07T11:04:37.698Z,28.74
2022-08-07T11:07:56.869Z,28.72
2022-08-07T11:10:11.116Z,28.72
2022-08-07T11:12:49.287Z,28.91
2022-08-07T11:15:35.956Z,29.05
2022-08-07T11:18:12.520Z,29.04
2022-08-07T11:21:07.848Z,29.38
2022-08-07T11:23:59.502Z,29.18
2022-08-07T11:27:13.453Z,28.62
2022-08-07T11:30:10.096Z,28.61
2022-08-07T11:33:14.050Z,28.64
2022-08-07T11:36:10.113Z,28.81
2022-08-07T11:38:59.202Z,28.38
2022-08-07T11:42:02.037Z,28.92
2022-08-07T11:44:52.569Z,28.63
2022-08-07T11:47:26.153Z,28.69
2022-08-07T11:50:32.927Z,29.12
2022-08-07T11:53:21.681Z,28.75
2022-08-07T12:02:35.814Z,28.67
2022-08-07T12:05:15.296Z,28.69
2022-08-07T12:08:25.675Z,29.15
2022-08-07T12:14:27.577Z,28.76
2022-08-07T12:20:10.315Z,28.29
2022-08-07T12:23:37.256Z,28.06
2022-08-07T12:32:18.221Z,28.32
2022-08-07T12:34:55.666Z,28.40
2022-08-07T12:37:27.971Z,28.36
2022-08-07T12:40:03.073Z,28.50
2022-08-07T12:42:33.302Z,28.63
2022-08-07T12:45:09.350Z,28.44
2022-08-07T12:47:50.238Z,28.63
2022-08-07T12:50:49.456Z,28.74
2022-08-07T12:53:18.845Z,28.58
2022-08-07T12:56:03.623Z,28.84
2022-08-07T12:58:39.293Z,28.94
2022-08-07T13:01:32.697Z,28.62
2022-08-07T13:04:04.839Z,28.66
2022-08-07T13:07:01.226Z,28.84
2022-08-07T13:10:18.901Z,28.64
2022-08-07T13:13:02.404Z,28.72
2022-08-07T13:15:48.821Z,28.89
2022-08-07T13:18:50.637Z,29.03
2022-08-07T13:21:50.110Z,29.01
2022-08-07T13:24:52.432Z,29.31
2022-08-07T13:28:10.621Z,29.25
2022-08-07T13:31:01.483Z,29.06
2022-08-07T13:34:30.854Z,29.13
2022-08-07T13:36:43.667Z,28.76
2022-08-07T13:39:49.841Z,28.86
2022-08-07T13:42:14.702Z,28.95
2022-08-07T13:44:55.240Z,28.80
2022-08-07T13:48:05.530Z,28.58
2022-08-07T13:51:00.053Z,28.71
2022-08-07T13:53:55.332Z,28.79
2022-08-07T13:56:35.459Z,28.95
2022-08-07T13:59:21.716Z,28.95
2022-08-07T14:02:13.034Z,28.69
2022-08-07T14:04:49.667Z,28.72
2022-08-07T14:07:22.938Z,28.74
2022-08-07T14:10:17.822Z,28.66
2022-08-07T14:13:00.541Z,28.78
2022-08-07T14:15:39.308Z,28.52
2022-08-07T14:18:28.873Z,28.63
2022-08-07T14:22:01.089Z,28.75
2022-08-07T14:24:20.887Z,28.64
2022-08-07T14:26:57.778Z,28.79
2022-08-07T14:30:09.329Z,28.77
2022-08-07T14:32:20.830Z,28.93
2022-08-07T14:34:54.940Z,28.91
2022-08-07T14:37:36.062Z,28.80
2022-08-07T14:40:16.923Z,28.58
2022-08-07T14:43:57.910Z,28.66
2022-08-07T14:46:01.983Z,28.76
2022-08-07T14:48:35.891Z,28.82
2022-08-07T14:51:16.168Z,28.80
2022-08-07T14:54:08.980Z,28.92
2022-08-07T14:56:39.111Z,28.98
2022-08-07T14:59:13.616Z,28.92
2022-08-07T15:05:03.592Z,28.72
2022-08-07T15:07:51.229Z,28.67
2022-08-07T15:10:26.598Z,28.77
2022-08-07T15:13:00.450Z,28.71
2022-08-07T15:15:38.940Z,28.69
2022-08-07T15:18:34.114Z,28.60
2022-08-07T15:21:44.174Z,28.67
2022-08-07T15:25:15.197Z,28.62
2022-08-07T15:27:17.395Z,28.68
2022-08-07T15:32:50.602Z,28.55
2022-08-07T15:38:30.395Z,28.44
2022-08-07T15:41:23.849Z,28.42
2022-08-07T15:44:07.092Z,28.49
2022-08-07T15:46:47.416Z,28.47
2022-08-07T15:50:04.159Z,28.48
2022-08-07T15:52:30.619Z,28.45
2022-08-07T15:55:03.810Z,28.44
2022-08-07T15:57:40.070Z,28.40
2022-08-07T16:00:31.028Z,28.39
2022-08-07T16:03:05.377Z,28.42
2022-08-07T16:05:36.033Z,28.33
2022-08-07T16:08:30.944Z,28.27
2022-08-07T16:11:26.631Z,28.22
2022-08-07T16:14:19.376Z,28.08
2022-08-07T16:18:01.375Z,28.08
2022-08-07T16:20:33.965Z,28.11
2022-08-07T16:23:54.744Z,28.13
2022-08-07T16:26:30.612Z,28.04
2022-08-07T16:30:11.085Z,28.02
2022-08-07T16:32:34.522Z,28.00
2022-08-07T16:35:56.759Z,27.98
2022-08-07T16:39:01.087Z,27.97
2022-08-07T16:41:54.656Z,27.92
2022-08-07T16:45:04.080Z,27.87
2022-08-07T16:48:02.510Z,27.96
2022-08-07T16:50:52.698Z,27.92
2022-08-07T16:54:06.038Z,27.91
2022-08-07T16:56:56.378Z,27.84
2022-08-07T16:59:47.053Z,27.75
2022-08-07T17:02:53.691Z,27.71
2022-08-07T17:06:28.441Z,27.64
2022-08-07T17:08:11.104Z,27.54
2022-08-07T17:10:54.683Z,27.56
2022-08-07T17:14:17.567Z,27.45
2022-08-07T17:16:56.212Z,27.53
2022-08-07T17:20:02.567Z,27.37
2022-08-07T17:22:45.910Z,27.27
2022-08-07T17:25:47.567Z,27.24
2022-08-07T17:28:22.296Z,27.22
2022-08-07T17:31:16.061Z,27.22
2022-08-07T17:34:15.515Z,27.14
2022-08-07T17:37:08.912Z,27.06
2022-08-07T17:40:03.106Z,26.98
2022-08-07T17:42:33.668Z,26.99
2022-08-07T17:45:14.885Z,26.94
2022-08-07T17:47:54.023Z,26.92
2022-08-07T17:50:54.288Z,26.92
2022-08-07T17:54:01.699Z,26.89
2022-08-07T17:56:57.787Z,26.94
2022-08-07T17:59:39.157Z,26.82
2022-08-07T18:02:56.624Z,26.67
2022-08-07T18:06:03.456Z,26.66
2022-08-07T18:09:01.391Z,26.53
2022-08-07T18:12:16.002Z,26.42
2022-08-07T18:14:46.434Z,26.28
2022-08-07T18:18:36.624Z,26.19
2022-08-07T18:21:30.080Z,26.11
2022-08-07T18:24:33.353Z,25.98
2022-08-07T18:27:17.974Z,25.81
2022-08-07T18:30:31.875Z,25.79
2022-08-07T18:33:35.087Z,25.69
2022-08-07T18:36:32.613Z,25.57
2022-08-07T18:40:05.690Z,25.44
2022-08-07T18:42:13.007Z,25.37
2022-08-07T18:45:44.032Z,25.38
2022-08-07T18:48:03.427Z,25.27
2022-08-07T18:50:49.909Z,25.20
2022-08-07T18:53:42.769Z,25.21
2022-08-07T18:56:40.560Z,25.19
2022-08-07T18:59:58.879Z,25.10
2022-08-07T19:02:52.645Z,25.01
2022-08-07T19:06:03.079Z,24.90
2022-08-07T19:08:59.916Z,24.86
2022-08-07T19:12:03.994Z,24.86
2022-08-07T19:14:56.041Z,24.88
2022-08-07T19:17:59.193Z,24.80
2022-08-07T19:21:08.384Z,24.69
2022-08-07T19:23:58.518Z,24.63
2022-08-07T19:26:55.633Z,24.75
2022-08-07T19:30:57.240Z,24.68
2022-08-07T19:32:28.911Z,24.65
2022-08-07T19:35:03.437Z,24.76
2022-08-07T19:37:57.150Z,24.77
2022-08-07T19:40:31.861Z,24.74
2022-08-07T19:43:09.668Z,24.73
2022-08-07T19:46:07.171Z,24.73
2022-08-07T19:48:42.605Z,24.59
2022-08-07T19:51:19.467Z,24.58
2022-08-07T19:54:34.343Z,24.54
2022-08-07T19:57:58.317Z,24.49
2022-08-07T19:59:41.987Z,24.41
2022-08-07T20:02:19.739Z,24.31
2022-08-07T20:05:00.460Z,24.19
2022-08-07T20:07:47.135Z,24.13
2022-08-07T20:10:36.757Z,23.96
2022-08-07T20:13:26.927Z,23.99
2022-08-07T20:16:03.824Z,24.07
2022-08-07T20:18:34.773Z,24.02
2022-08-07T20:21:22.101Z,23.88
2022-08-07T20:24:00.425Z,23.97
2022-08-07T20:26:38.766Z,23.84
2022-08-07T20:29:48.004Z,23.85
2022-08-07T20:32:11.635Z,23.73
2022-08-07T20:34:53.071Z,23.76
2022-08-07T20:37:30.026Z,23.65
2022-08-07T20:40:05.339Z,23.63
2022-08-07T20:42:56.683Z,23.62
2022-08-07T20:45:33.070Z,23.57
2022-08-07T20:48:30.304Z,23.57
2022-08-07T20:51:09.334Z,23.50
2022-08-07T20:54:03.165Z,23.52
2022-08-07T20:56:30.724Z,23.47
2022-08-07T20:59:05.132Z,23.44
2022-08-07T21:01:45.919Z,23.45
2022-08-07T21:04:28.773Z,23.41
2022-08-07T21:07:04.461Z,23.39
2022-08-07T21:09:53.245Z,23.35
2022-08-07T21:12:33.750Z,23.33
2022-08-07T21:15:08.009Z,23.27
2022-08-07T21:18:03.204Z,23.23
2022-08-07T21:20:30.194Z,23.10
2022-08-07T21:23:18.331Z,23.03
2022-08-07T21:26:09.466Z,22.97
2022-08-07T21:28:53.197Z,22.97
2022-08-07T21:32:43.124Z,22.88
2022-08-07T21:34:46.072Z,22.78
2022-08-07T21:37:59.633Z,22.71
2022-08-07T21:40:38.241Z,22.65
2022-08-07T21:43:55.983Z,22.58
2022-08-07T21:46:46.271Z,22.52
2022-08-07T21:50:01.223Z,22.49
2022-08-07T21:52:55.169Z,22.46
2022-08-07T21:55:31.001Z,22.47
2022-08-07T21:58:30.068Z,22.41
2022-08-07T22:01:13.907Z,22.49
2022-08-07T22:04:00.637Z,22.58
2022-08-07T22:06:45.202Z,22.56
2022-08-07T22:09:25.492Z,22.54
2022-08-07T22:12:05.897Z,22.47
2022-08-07T22:14:59.555Z,22.48
2022-08-07T22:17:36.070Z,22.49
2022-08-07T22:20:23.189Z,22.57
2022-08-07T22:23:17.752Z,22.66
2022-08-07T22:25:59.059Z,22.71
2022-08-07T22:28:38.074Z,22.68
2022-08-07T22:31:59.544Z,22.76
2022-08-07T22:34:12.894Z,22.71
2022-08-07T22:36:58.998Z,22.74
2022-08-07T22:39:54.109Z,22.73
2022-08-07T22:42:29.297Z,22.74
2022-08-07T22:45:11.034Z,22.70
2022-08-07T22:48:54.994Z,22.74
2022-08-07T22:51:22.401Z,22.71
2022-08-07T22:54:21.261Z,22.70
2022-08-07T22:57:16.903Z,22.70
2022-08-07T23:00:16.992Z,22.67
2022-08-07T23:03:03.533Z,22.65
2022-08-07T23:06:09.290Z,22.56
2022-08-07T23:10:04.112Z,22.54
2022-08-07T23:12:50.369Z,22.54
2022-08-07T23:16:06.516Z,22.50
2022-08-07T23:18:24.179Z,22.51
2022-08-07T23:21:20.987Z,22.51
2022-08-07T23:24:27.820Z,22.51
2022-08-07T23:28:21.443Z,22.54
2022-08-07T23:31:06.432Z,22.53
2022-08-07T23:34:34.063Z,22.51
2022-08-07T23:36:43.419Z,22.41
2022-08-07T23:39:55.574Z,22.31
2022-08-07T23:42:39.142Z,22.17
2022-08-07T23:45:33.447Z,22.08
2022-08-07T23:48:24.968Z,21.97
2022-08-07T23:51:01.793Z,21.71
2022-08-07T23:53:51.159Z,21.88
2022-08-07T23:56:31.294Z,21.81
2022-08-07T23:59:10.515Z,21.69
